Map

Track Data

SID SEASON NUMBER BASIN SUBBASIN NAME ISO_TIME NATURE LAT LON WMO_WIND WMO_PRES WMO_AGENCY TRACK_TYPE DIST2LAND LANDFALL IFLAG USA_AGENCY USA_ATCF_ID USA_LAT USA_LON USA_RECORD USA_STATUS USA_WIND USA_PRES USA_SSHS USA_R34_NE USA_R34_SE USA_R34_SW USA_R34_NW USA_R50_NE USA_R50_SE USA_R50_SW USA_R50_NW USA_R64_NE USA_R64_SE USA_R64_SW USA_R64_NW USA_POCI USA_ROCI USA_RMW USA_EYE TOKYO_LAT TOKYO_LON TOKYO_GRADE TOKYO_WIND TOKYO_PRES TOKYO_R50_DIR TOKYO_R50_LONG TOKYO_R50_SHORT TOKYO_R30_DIR TOKYO_R30_LONG TOKYO_R30_SHORT TOKYO_LAND CMA_LAT CMA_LON CMA_CAT CMA_WIND CMA_PRES HKO_LAT HKO_LON HKO_CAT HKO_WIND HKO_PRES NEWDELHI_LAT NEWDELHI_LON NEWDELHI_GRADE NEWDELHI_WIND NEWDELHI_PRES NEWDELHI_CI NEWDELHI_DP NEWDELHI_POCI REUNION_LAT REUNION_LON REUNION_TYPE REUNION_WIND REUNION_PRES REUNION_TNUM REUNION_CI REUNION_RMW REUNION_R34_NE REUNION_R34_SE REUNION_R34_SW REUNION_R34_NW REUNION_R50_NE REUNION_R50_SE REUNION_R50_SW REUNION_R50_NW REUNION_R64_NE REUNION_R64_SE REUNION_R64_SW REUNION_R64_NW BOM_LAT BOM_LON BOM_TYPE BOM_WIND BOM_PRES BOM_TNUM BOM_CI BOM_RMW BOM_R34_NE BOM_R34_SE BOM_R34_SW BOM_R34_NW BOM_R50_NE BOM_R50_SE BOM_R50_SW BOM_R50_NW BOM_R64_NE BOM_R64_SE BOM_R64_SW BOM_R64_NW BOM_ROCI BOM_POCI BOM_EYE BOM_POS_METHOD BOM_PRES_METHOD NADI_LAT NADI_LON NADI_CAT NADI_WIND NADI_PRES WELLINGTON_LAT WELLINGTON_LON WELLINGTON_WIND WELLINGTON_PRES DS824_LAT DS824_LON DS824_STAGE DS824_WIND DS824_PRES TD9636_LAT TD9636_LON TD9636_STAGE TD9636_WIND TD9636_PRES TD9635_LAT TD9635_LON TD9635_WIND TD9635_PRES TD9635_ROCI NEUMANN_LAT NEUMANN_LON NEUMANN_CLASS NEUMANN_WIND NEUMANN_PRES MLC_LAT MLC_LON MLC_CLASS MLC_WIND MLC_PRES USA_GUST BOM_GUST BOM_GUST_PER REUNION_GUST REUNION_GUST_PER USA_SEAHGT USA_SEARAD_NE USA_SEARAD_SE USA_SEARAD_SW USA_SEARAD_NW STORM_SPEED STORM_DIR
2010078N03153 2010 18 WP MM OMAIS 2010-03-19 06:00:00 NR 3.20000 153.300 main 713 662 O_____________ jtwc_wp WP022010 3.20000 153.300 DB 15 1010 -3 12 240
2010078N03153 2010 18 WP MM OMAIS 2010-03-19 09:00:00 NR 2.88504 152.762 main 662 622 P_____________ WP022010 2.88504 152.762 DB 15 1010 -3 12 246
2010078N03153 2010 18 WP MM OMAIS 2010-03-19 12:00:00 NR 2.70000 152.200 main 622 610 O_____________ jtwc_wp WP022010 2.70000 152.200 DB 15 1010 -3 12 263
2010078N03153 2010 18 WP MM OMAIS 2010-03-19 15:00:00 NR 2.73249 151.600 main 610 608 P_____________ WP022010 2.73249 151.600 DB 17 1008 -3 12 279
2010078N03153 2010 18 WP MM OMAIS 2010-03-19 18:00:00 NR 2.90000 151.000 main 627 627 O_____________ jtwc_wp WP022010 2.90000 151.000 DB 20 1007 -3 12 287
2010078N03153 2010 18 WP MM OMAIS 2010-03-19 21:00:00 NR 3.07745 150.450 main 652 652 P_____________ WP022010 3.07745 150.450 DB 20 1007 -3 12 290
2010078N03153 2010 18 WP MM OMAIS 2010-03-20 00:00:00 NR 3.30000 149.900 main 666 659 O_____________ jtwc_wp WP022010 3.30000 149.900 DB 20 1007 -3 1008 150 15 12 292
2010078N03153 2010 18 WP MM OMAIS 2010-03-20 03:00:00 NR 3.54249 149.300 main 662 662 P_____________ WP022010 3.54249 149.300 DB 20 1007 -3 1008 160 15 13 293
2010078N03153 2010 18 WP MM OMAIS 2010-03-20 06:00:00 NR 3.80000 148.700 main 676 674 O_____________ jtwc_wp WP022010 3.80000 148.700 DB 20 1007 -3 1008 170 15 13 295
2010078N03153 2010 18 WP MM OMAIS 2010-03-20 09:00:00 NR 4.07246 148.135 main 699 698 P_____________ WP022010 4.07246 148.135 DB 20 1007 -3 1008 170 15 12 294
2010078N03153 2010 18 WP MM OMAIS 2010-03-20 12:00:00 NR 4.30000 147.600 main 717 717 O_____________ jtwc_wp WP022010 4.30000 147.600 DB 20 1007 -3 1008 170 15 11 288
2010078N03153 2010 18 WP MM OMAIS 2010-03-20 15:00:00 NR 4.42248 147.077 main 728 728 P_____________ WP022010 4.42248 147.077 DB 22 1005 -3 1008 170 15 10 281
2010078N03153 2010 18 WP MM OMAIS 2010-03-20 18:00:00 TS 4.50000 146.600 main 739 739 O_____________ jtwc_wp WP022010 4.50000 146.600 TD 25 1004 -1 1008 170 15 9 281
2010078N03153 2010 18 WP MM OMAIS 2010-03-20 21:00:00 TS 4.59247 146.170 main 752 752 P_____________ WP022010 4.59247 146.170 TD 25 1004 -1 1008 170 15 8 284
2010078N03153 2010 18 WP MM OMAIS 2010-03-21 00:00:00 TS 4.70000 145.800 main 767 767 O_____________ jtwc_wp WP022010 4.70000 145.800 TD 25 1004 -1 1008 170 15 7 289
2010078N03153 2010 18 WP MM OMAIS 2010-03-21 03:00:00 TS 4.82747 145.485 main 782 782 P_____________ WP022010 4.82747 145.485 TD 22 1005 -1 1008 170 20 7 297
2010078N03153 2010 18 WP MM OMAIS 2010-03-21 06:00:00 NR 5.00000 145.200 main 810 810 O_____________ jtwc_wp WP022010 5.00000 145.200 DB 20 1007 -3 1008 170 25 7 300
2010078N03153 2010 18 WP MM OMAIS 2010-03-21 09:00:00 NR 5.18252 144.877 main 839 839 P_____________ WP022010 5.18252 144.877 DB 20 1007 -3 1008 170 27 8 310
2010078N03153 2010 18 WP MM OMAIS 2010-03-21 12:00:00 NR 5.50000 144.600 main 880 880 O_____________ jtwc_wp WP022010 5.50000 144.600 DB 20 1007 -3 1008 170 30 10 336
2010078N03153 2010 18 WP MM OMAIS 2010-03-21 15:00:00 NR 6.08493 144.465 main 948 948 P_____________ WP022010 6.08493 144.465 DB 22 1005 -3 1008 170 30 12 346
2010078N03153 2010 18 WP MM OMAIS 2010-03-21 18:00:00 TS 6.70000 144.300 main 1018 1018 O_____________ jtwc_wp WP022010 6.70000 144.300 TD 25 1004 -1 1008 170 30 11 333
2010078N03153 2010 18 WP MM OMAIS 2010-03-21 21:00:00 TS 7.10251 143.945 main 1073 1073 P_____________ WP022010 7.10251 143.945 TD 27 1002 -1 1008 170 30 11 311
2010078N03153 2010 18 WP MM OMAIS 2010-03-22 00:00:00 TS 7.40000 143.500 main 1118 1118 O_____________ jtwc_wp WP022010 7.40000 143.500 TD 30 1000 -1 1008 170 30 10 303
2010078N03153 2010 18 WP MM OMAIS 2010-03-22 03:00:00 TS 7.66495 143.065 main 1164 1162 P_____________ WP022010 7.66495 143.065 TD 30 1000 -1 1007 165 27 10 299
2010078N03153 2010 18 WP MM OMAIS 2010-03-22 06:00:00 TS 7.90000 142.600 main 1170 1165 O_O___________ jtwc_wp WP022010 7.90000 142.600 TD 30 1000 -1 1006 160 25 7.90000 142.600 1 29 1004 10 298
2010078N03153 2010 18 WP MM OMAIS 2010-03-22 09:00:00 TS 8.15080 142.153 main 1184 1176 P_P___________ WP022010 8.14994 142.115 TD 30 1000 -1 1006 160 27 8.15251 142.230 1 29 1004 10 299
2010078N03153 2010 18 WP MM OMAIS 2010-03-22 12:00:00 TS 8.40000 141.688 1006 tokyo main 1185 1182 OOO___________ jtwc_wp WP022010 8.40000 141.600 TD 30 1000 -1 1006 160 30 8.40000 141.700 2 1006 0 0 0 8.40000 141.800 1 29 1004 11 297
2010078N03153 2010 18 WP MM OMAIS 2010-03-22 15:00:00 TS 8.64153 141.166 main 1190 1190 PPP___________ WP022010 8.63501 141.042 TD 32 998 -1 1006 170 30 8.65263 141.200 2 1005 0 0 8.64251 141.272 1 29 1003 12 296
2010078N03153 2010 18 WP MM OMAIS 2010-03-22 18:00:00 TS 8.92500 140.592 1004 tokyo main 1205 1205 OOOO__________ jtwc_wp WP022010 8.90000 140.500 TS 35 996 0 1007 180 30 8.90000 140.700 2 1004 0 0 0 8.90000 140.700 1 29 1002 9.20000 140.200 TD 25 1000 12 297
2010078N03153 2010 18 WP MM OMAIS 2010-03-22 21:00:00 TS 9.20783 140.061 main 1213 1209 PPPP__________ WP022010 9.24236 140.042 TS 35 996 0 1006 180 30 9.14243 140.200 2 1003 0 0 9.19248 140.135 1 29 1002 9.30024 139.673 TD 25 1000 12 298
2010078N03153 2010 18 WP MM OMAIS 2010-03-23 00:00:00 TS 9.48000 139.547 1002 tokyo main 1221 1217 OOOO__________ jtwc_wp WP022010 9.60000 139.600 TS 35 996 0 1005 180 30 9.40000 139.700 2 1002 0 0 0 9.50000 139.600 1 29 1002 9.40000 139.200 TD 25 1000 11 299
2010078N03153 2010 18 WP MM OMAIS 2010-03-23 03:00:00 TS 9.73732 139.077 main 1228 1228 PPPP__________ WP022010 9.92246 139.107 TS 35 996 0 1005 180 30 9.70728 139.230 2 1002 0 0 9.80724 139.165 1 29 1002 9.51231 138.807 TD 27 999 11 299
2010078N03153 2010 18 WP MM OMAIS 2010-03-23 06:00:00 TS 10.0000 138.600 1002 tokyo main 1244 1241 OOOO__________ jtwc_wp WP022010 10.2000 138.600 TS 35 996 0 1005 180 30 10.0000 138.700 2 1002 0 0 0 10.1000 138.700 1 29 1002 9.70000 138.400 TD 30 998 12 297
2010078N03153 2010 18 WP MM OMAIS 2010-03-23 09:00:00 TS 10.2688 138.006 main 1260 1227 PPPP__________ WP022010 10.4448 138.115 TS 35 996 0 1005 180 30 10.2152 137.992 2 1003 0 0 10.3727 138.058 1 29 1002 10.0426 137.858 TD 30 998 13 293
2010078N03153 2010 18 WP MM OMAIS 2010-03-23 12:00:00 TS 10.5000 137.400 1004 tokyo main 1227 1177 OOOO__________ jtwc_wp WP022010 10.6000 137.600 TS 35 996 0 1005 180 30 10.4000 137.300 2 1004 0 0 0 10.6000 137.400 1 29 1002 10.4000 137.300 TD 30 998 12 288
2010078N03153 2010 18 WP MM OMAIS 2010-03-23 15:00:00 TS 10.6205 136.881 main 1177 1129 PPPP__________ WP022010 10.5700 137.007 TS 35 996 0 1005 175 30 10.5772 136.812 2 1003 0 0 10.7348 136.870 1 29 1002 10.5999 136.835 TD 30 998 10 286
2010078N03153 2010 18 WP MM OMAIS 2010-03-23 18:00:00 TS 10.7750 136.400 1002 tokyo main 1129 1083 OOOO__________ jtwc_wp WP022010 10.6000 136.400 TS 35 996 0 1006 170 30 10.8000 136.400 2 1002 0 0 0 10.9000 136.400 1 29 1002 10.8000 136.400 TD 30 998 11 296
2010078N03153 2010 18 WP MM OMAIS 2010-03-23 21:00:00 TS 11.0830 135.919 main 1083 1047 PPPP__________ WP022010 10.9174 135.828 TS 35 996 0 1005 170 30 11.0899 135.957 2 1001 0 0 11.2199 135.950 1 29 1001 11.1050 135.942 TD 30 998 12 308
2010078N03153 2010 18 WP MM OMAIS 2010-03-24 00:00:00 TS 11.5000 135.450 1000 tokyo main 1050 1009 OOOO__________ jtwc_wp WP022010 11.4000 135.300 TS 35 996 0 1005 170 30 11.5000 135.500 2 1000 0 0 0 11.6000 135.500 1 29 1000 11.5000 135.500 TD 30 998 13 315
2010078N03153 2010 18 WP MM OMAIS 2010-03-24 03:00:00 TS 11.9905 135.001 main 1009 971 PPPP__________ WP022010 11.9573 134.850 TS 37 994 0 1005 170 30 12.0849 135.015 2 1000 0 0 11.9274 135.015 1 29 1000 11.9923 135.122 TD 30 998 14 318
2010078N03153 2010 18 WP MM OMAIS 2010-03-24 06:00:00 TS 12.5000 134.525 1000 tokyo main 962 917 OOOO__________ jtwc_wp WP022010 12.5000 134.400 TS 40 993 0 35 30 30 40 1005 170 30 12.7000 134.500 2 1000 0 0 0 12.3000 134.500 1 29 1000 12.5000 134.700 TD 30 998 14 313
2010078N03153 2010 18 WP MM OMAIS 2010-03-24 09:00:00 TS 12.9439 133.949 main 906 865 PPPP__________ WP022010 12.8651 133.850 TS 40 993 0 27 22 22 30 1005 170 25 13.2026 133.913 2 999 0 0 12.7926 133.935 1 31 999 12.9152 134.100 TD 32 997 14 308
2010078N03153 2010 18 WP MM OMAIS 2010-03-24 12:00:00 TS 13.3500 133.400 35 998 tokyo main 867 830 OOOO__________ jtwc_wp WP022010 13.2000 133.300 TS 40 993 0 20 15 15 20 1005 170 20 13.6000 133.400 3 35 998 0 1 90 70 0 13.3000 133.400 2 34 998 13.3000 133.500 TS 35 996 12 310
2010078N03153 2010 18 WP MM OMAIS 2010-03-24 15:00:00 TS 13.7343 132.972 main 830 805 PPPP__________ WP022010 13.6424 132.813 TS 45 989 0 25 22 20 22 1005 170 17 13.8648 133.097 3 35 998 0 1 90 70 13.7224 132.940 2 34 998 13.7074 133.040 TS 35 996 11 316
2010078N03153 2010 18 WP MM OMAIS 2010-03-24 18:00:00 TS 14.1000 132.650 35 998 tokyo main 808 786 OOOO__________ jtwc_wp WP022010 14.1000 132.400 TS 50 985 0 30 30 25 25 1005 170 15 14.1000 132.900 3 35 998 0 1 90 70 0 14.1000 132.600 2 34 998 14.1000 132.700 TS 35 996 9 323
2010078N03153 2010 18 WP MM OMAIS 2010-03-24 21:00:00 TS 14.4699 132.405 main 790 781 PPPP__________ WP022010 14.5374 132.070 TS 50 985 0 37 35 27 30 1005 165 15 14.4275 132.678 3 35 998 0 1 90 70 14.4649 132.405 2 34 998 14.4499 132.470 TS 35 996 8 330
2010078N03153 2010 18 WP MM OMAIS 2010-03-25 00:00:00 TS 14.8250 132.225 35 998 tokyo main 781 774 OOOO__________ jtwc_wp WP022010 14.9000 131.800 TS 50 985 0 45 40 30 35 1006 160 15 14.8000 132.500 3 35 998 0 1 90 70 0 14.8000 132.300 2 34 998 14.8000 132.300 TS 35 996 8 332
2010078N03153 2010 18 WP MM OMAIS 2010-03-25 03:00:00 TS 15.1519 132.033 main 778 773 PPPP__________ WP022010 15.1225 131.512 TS 47 987 0 55 42 37 47 1006 167 25 15.1925 132.377 3 35 998 0 1 90 70 15.0925 132.177 2 34 998 15.2000 132.063 TS 35 996 7 334
2010078N03153 2010 18 WP MM OMAIS 2010-03-25 06:00:00 TS 15.4750 131.900 35 998 tokyo main 783 783 OOOO__________ jtwc_wp WP022010 15.3000 131.300 TS 45 989 0 65 45 45 60 1007 175 35 15.6000 132.300 3 35 998 0 1 90 70 0 15.4000 132.100 2 34 998 15.6000 131.900 TS 35 996 7 347
2010078N03153 2010 18 WP MM OMAIS 2010-03-25 09:00:00 TS 15.8250 131.861 main 799 799 PPPP__________ WP022010 15.5350 131.212 TS 40 992 0 65 45 45 60 1007 170 35 16.0150 132.235 3 35 998 0 1 90 70 15.7850 132.077 2 34 998 15.9650 131.920 TS 35 996 7 0
2010078N03153 2010 18 WP MM OMAIS 2010-03-25 12:00:00 TS 16.1750 131.875 35 998 tokyo main 822 822 OOOO__________ jtwc_wp WP022010 15.8000 131.200 TS 35 996 0 65 45 45 60 1007 165 35 16.4000 132.200 3 35 998 0 1 90 70 0 16.2000 132.100 2 34 998 16.3000 132.000 TS 35 996 7 4
2010078N03153 2010 18 WP MM OMAIS 2010-03-25 15:00:00 TS 16.5112 131.901 main 840 840 PPPP__________ WP022010 16.0775 131.185 TS 32 998 -1 1007 160 35 16.7300 132.215 3 35 999 0 1 90 70 16.6299 132.195 2 34 998 16.6075 132.008 TS 35 996 7 1
2010078N03153 2010 18 WP MM OMAIS 2010-03-25 18:00:00 TS 16.8250 131.900 35 1000 tokyo main 860 860 OOOO__________ jtwc_wp WP022010 16.4000 131.200 TD 30 1000 -1 1007 155 35 17.0000 132.200 3 35 1000 0 1 90 70 0 17.0000 132.200 2 34 998 16.9000 132.000 TS 35 996 6 350
2010078N03153 2010 18 WP MM OMAIS 2010-03-25 21:00:00 TS 17.1113 131.789 main 870 869 PPPP__________ WP022010 16.7699 131.205 TD 30 1000 -1 1007 152 35 17.2300 132.058 3 1002 0 1 17.2452 131.893 2 34 999 17.2000 132.000 TS 35 997 6 343
2010078N03153 2010 18 WP MM OMAIS 2010-03-26 00:00:00 TS 17.3867 131.727 1004 tokyo main 874 874 OOOO__________ jtwc_wp WP022010 17.2000 131.300 TD 30 1000 -1 1007 150 35 17.4000 131.900 2 1004 0 0 0 17.4000 131.600 2 34 1000 17.5000 132.000 TS 35 998 5 0
2010078N03153 2010 18 WP MM OMAIS 2010-03-26 03:00:00 TS 17.6293 131.771 main 893 893 PPPP__________ WP022010 17.6852 131.552 TD 30 1000 -1 1007 150 42 17.5225 131.805 2 1005 0 0 17.5224 131.632 2 31 1002 17.8150 131.985 TS 35 998 5 18
2010078N03153 2010 18 WP MM OMAIS 2010-03-26 06:00:00 MX 17.8364 131.882 1006 tokyo main 913 913 OOOO__________ jtwc_wp WP022010 18.2000 131.900 EX 30 1000 -4 1007 150 50 17.6000 131.800 2 1006 0 0 0 17.6000 131.800 1 29 1004 18.1000 132.000 TS 35 998 4 31
2010078N03153 2010 18 WP MM OMAIS 2010-03-26 09:00:00 TS 17.9925 132.004 main 933 933 _PPP__________ WP022010 EX -4 17.6551 131.915 2 1007 0 0 17.6550 131.960 1 27 1005 18.3300 132.070 TS 32 999 4 38
2010078N03153 2010 18 WP MM OMAIS 2010-03-26 12:00:00 TS 18.1800 132.160 1008 tokyo main 962 962 _OOO__________ 17.7000 132.100 2 1008 0 0 0 17.7000 132.100 1 25 1006 18.5000 132.200 TD 30 1000 7 30
2010078N03153 2010 18 WP MM OMAIS 2010-03-26 15:00:00 NR 18.6151 132.385 main 1002 1002 ___P__________ 2 0 0 1 18.6151 132.385 TD 30 1000 7 39
2010078N03153 2010 18 WP MM OMAIS 2010-03-26 18:00:00 NR 18.7000 132.600 main 1026 ___O__________ 18.7000 132.600 TD 30 1000 4 68

Digital Typhoon Data and Search

About IBTrACS Database

This database is a web-friendly format of International Best Track Archive for Climate Stewardship (IBTrACS), a global best track data archive curated by NOAA dating back to 1842.

Updated: 2021-10-08